createdAt,value
2019-02-18T00:00:31.526Z,12.40
2019-02-18T00:03:02.156Z,12.40
2019-02-18T00:05:32.510Z,12.40
2019-02-18T00:08:03.343Z,12.40
2019-02-18T00:10:34.287Z,12.40
2019-02-18T00:13:04.608Z,12.40
2019-02-18T00:15:34.962Z,12.40
2019-02-18T00:18:05.370Z,12.30
2019-02-18T00:20:35.985Z,12.30
2019-02-18T00:23:06.359Z,12.20
2019-02-18T00:25:36.756Z,12.10
2019-02-18T00:28:07.485Z,12.10
2019-02-18T00:30:38.334Z,12.10
2019-02-18T00:33:08.664Z,12.10
2019-02-18T00:35:39.002Z,12.00
2019-02-18T00:38:09.323Z,12.00
2019-02-18T00:40:39.732Z,12.00
2019-02-18T00:43:10.065Z,12.00
2019-02-18T00:45:40.508Z,12.00
2019-02-18T00:48:10.888Z,12.00
2019-02-18T00:50:41.503Z,12.00
2019-02-18T00:53:12.167Z,11.90
2019-02-18T00:55:43.117Z,11.80
2019-02-18T00:58:13.756Z,11.70
2019-02-18T01:00:44.258Z,11.30
2019-02-18T01:03:15.456Z,11.20
2019-02-18T01:05:45.883Z,11.00
2019-02-18T01:08:16.254Z,11.00
2019-02-18T01:10:46.635Z,10.90
2019-02-18T01:13:17.334Z,10.90
2019-02-18T01:15:47.665Z,10.80
2019-02-18T01:18:17.999Z,10.60
2019-02-18T01:20:49.085Z,10.50
2019-02-18T01:23:19.521Z,10.50
2019-02-18T01:25:49.861Z,9.60
2019-02-18T01:28:20.269Z,10.00
2019-02-18T01:30:50.994Z,10.10
2019-02-18T01:33:21.408Z,10.10
2019-02-18T01:35:51.851Z,10.00
2019-02-18T01:38:29.679Z,9.80
2019-02-18T01:41:00.075Z,9.80
2019-02-18T01:43:30.499Z,9.80
2019-02-18T01:46:00.877Z,9.70
2019-02-18T01:48:31.238Z,9.70
2019-02-18T01:51:02.333Z,9.60
2019-02-18T01:53:32.761Z,9.50
2019-02-18T01:56:03.360Z,9.50
2019-02-18T01:58:34.124Z,9.30
2019-02-18T02:01:04.468Z,9.10
2019-02-18T02:03:34.813Z,9.00
2019-02-18T02:06:05.251Z,8.90
2019-02-18T02:08:35.823Z,8.80
2019-02-18T02:11:06.236Z,8.70
2019-02-18T02:13:37.799Z,8.70
2019-02-18T02:16:11.349Z,8.70
2019-02-18T02:18:42.236Z,8.60
2019-02-18T02:21:12.623Z,8.70
2019-02-18T02:23:43.209Z,8.60
2019-02-18T02:26:13.563Z,8.60
2019-02-18T02:28:44.454Z,8.50
2019-02-18T02:31:15.634Z,8.30
2019-02-18T02:33:46.293Z,8.30
2019-02-18T02:36:16.725Z,8.20
2019-02-18T02:38:47.128Z,8.20
2019-02-18T02:41:17.445Z,8.20
2019-02-18T02:43:47.830Z,8.20
2019-02-18T02:46:18.414Z,8.20
2019-02-18T02:48:49.090Z,8.20
2019-02-18T02:51:19.416Z,8.10
2019-02-18T02:53:49.754Z,8.20
2019-02-18T02:56:20.348Z,8.10
2019-02-18T02:58:50.726Z,8.00
2019-02-18T03:01:21.585Z,8.00
2019-02-18T03:03:52.212Z,7.90
2019-02-18T03:06:31.785Z,7.80
2019-02-18T03:09:02.122Z,7.70
2019-02-18T03:11:32.806Z,7.80
2019-02-18T03:14:03.156Z,7.80
2019-02-18T03:16:33.557Z,7.80
2019-02-18T03:19:03.892Z,7.70
2019-02-18T03:21:36.003Z,7.50
2019-02-18T03:24:06.332Z,7.50
2019-02-18T03:26:36.957Z,7.50
2019-02-18T03:30:18.768Z,7.40
2019-02-18T03:32:56.428Z,7.20
2019-02-18T03:35:26.782Z,7.20
2019-02-18T03:37:59.328Z,7.20
2019-02-18T03:40:29.644Z,7.10
2019-02-18T03:43:00.344Z,7.10
2019-02-18T03:45:30.952Z,7.00
2019-02-18T03:48:01.523Z,7.00
2019-02-18T03:50:31.812Z,7.00
2019-02-18T03:53:02.563Z,6.90
2019-02-18T03:55:32.981Z,6.90
2019-02-18T03:58:03.336Z,6.80
2019-02-18T04:00:53.649Z,6.90
2019-02-18T04:03:23.985Z,6.90
2019-02-18T04:05:54.690Z,7.10
2019-02-18T04:08:25.258Z,7.10
2019-02-18T04:10:55.872Z,7.00
2019-02-18T04:13:26.190Z,6.90
2019-02-18T04:15:56.799Z,6.80
2019-02-18T04:18:34.034Z,6.80
2019-02-18T04:21:04.494Z,6.70
2019-02-18T04:23:34.844Z,6.70
2019-02-18T04:26:05.189Z,6.70
2019-02-18T04:28:35.554Z,6.80
2019-02-18T04:31:05.888Z,6.90
2019-02-18T04:33:38.409Z,6.90
2019-02-18T04:36:08.779Z,6.80
2019-02-18T04:38:39.886Z,6.70
2019-02-18T04:41:10.465Z,6.70
2019-02-18T04:43:42.162Z,6.80
2019-02-18T04:46:13.522Z,6.60
2019-02-18T04:48:43.870Z,6.50
2019-02-18T04:51:14.211Z,6.50
2019-02-18T04:53:44.887Z,6.40
2019-02-18T04:56:15.214Z,6.40
2019-02-18T04:58:46.150Z,6.40
2019-02-18T05:01:16.849Z,6.30
2019-02-18T05:03:47.522Z,6.30
2019-02-18T05:06:17.897Z,6.30
2019-02-18T05:08:48.288Z,6.30
2019-02-18T05:11:18.675Z,6.30
2019-02-18T05:13:49.025Z,6.40
2019-02-18T05:16:19.776Z,6.40
2019-02-18T05:18:50.367Z,6.30
2019-02-18T05:21:20.773Z,6.20
2019-02-18T05:24:01.893Z,6.30
2019-02-18T05:26:32.568Z,6.20
2019-02-18T05:29:02.938Z,6.20
2019-02-18T05:31:33.557Z,6.10
2019-02-18T05:34:03.885Z,6.10
2019-02-18T05:36:34.250Z,6.10
2019-02-18T05:39:17.088Z,6.00
2019-02-18T05:41:52.706Z,6.10
2019-02-18T05:44:22.982Z,6.00
2019-02-18T05:46:53.345Z,6.00
2019-02-18T05:49:23.863Z,6.00
2019-02-18T05:51:54.304Z,6.10
2019-02-18T05:54:24.991Z,6.10
2019-02-18T05:56:55.322Z,5.90
2019-02-18T05:59:25.711Z,5.80
2019-02-18T06:01:56.548Z,5.80
2019-02-18T06:04:28.690Z,5.80
2019-02-18T06:06:59.515Z,5.90
2019-02-18T06:09:31.833Z,5.90
2019-02-18T06:12:02.269Z,5.90
2019-02-18T06:14:32.894Z,6.00
2019-02-18T06:17:03.227Z,5.90
2019-02-18T06:19:41.859Z,5.90
2019-02-18T06:22:12.543Z,5.80
2019-02-18T06:24:43.195Z,5.70
2019-02-18T06:27:13.820Z,5.70
2019-02-18T06:29:44.766Z,5.70
2019-02-18T06:32:15.144Z,5.70
2019-02-18T06:34:46.179Z,5.80
2019-02-18T06:37:16.505Z,5.70
2019-02-18T06:39:46.845Z,5.80
2019-02-18T06:42:17.208Z,5.70
2019-02-18T06:45:21.891Z,5.70
2019-02-18T06:47:52.562Z,5.70
2019-02-18T06:50:22.929Z,5.80
2019-02-18T06:52:54.452Z,5.80
2019-02-18T06:55:24.847Z,5.80
2019-02-18T06:58:05.952Z,5.80
2019-02-18T07:00:42.483Z,5.70
2019-02-18T07:03:24.459Z,5.60
2019-02-18T07:05:59.815Z,5.70
2019-02-18T07:08:49.116Z,5.80
2019-02-18T07:11:44.213Z,5.90
2019-02-18T07:14:14.584Z,6.00
2019-02-18T07:16:44.945Z,6.00
2019-02-18T07:19:15.710Z,6.00
2019-02-18T07:21:58.359Z,6.00
2019-02-18T07:24:28.697Z,6.10
2019-02-18T07:26:59.423Z,6.10
2019-02-18T07:29:30.470Z,6.00
2019-02-18T07:32:01.812Z,5.90
2019-02-18T07:34:32.585Z,5.90
2019-02-18T07:37:03.005Z,6.00
2019-02-18T07:39:34.086Z,6.00
2019-02-18T07:42:04.482Z,6.00
2019-02-18T07:44:35.147Z,6.10
2019-02-18T07:47:05.502Z,6.20
2019-02-18T07:49:35.802Z,6.30
2019-02-18T07:52:06.444Z,6.30
2019-02-18T07:54:36.809Z,6.40
2019-02-18T07:57:07.870Z,6.40
2019-02-18T07:59:38.219Z,6.50
2019-02-18T08:02:11.141Z,6.50
2019-02-18T08:04:41.560Z,6.60
2019-02-18T08:07:12.214Z,6.70
2019-02-18T08:09:42.568Z,6.80
2019-02-18T08:12:12.954Z,6.90
2019-02-18T08:14:43.655Z,7.00
2019-02-18T08:17:14.075Z,7.10
2019-02-18T08:19:44.737Z,7.20
2019-02-18T08:22:15.100Z,7.30
2019-02-18T08:24:45.443Z,7.40
2019-02-18T08:27:16.934Z,7.50
2019-02-18T08:29:47.657Z,7.60
2019-02-18T08:32:18.023Z,7.80
2019-02-18T08:34:48.747Z,7.90
2019-02-18T08:37:19.160Z,8.00
2019-02-18T08:39:49.649Z,8.10
2019-02-18T08:42:20.037Z,8.20
2019-02-18T08:44:50.406Z,8.40
2019-02-18T08:47:20.769Z,8.50
2019-02-18T08:49:51.970Z,8.60
2019-02-18T08:52:22.385Z,8.70
2019-02-18T08:54:56.483Z,8.80
2019-02-18T08:57:24.892Z,8.90
2019-02-18T08:59:55.652Z,9.10
2019-02-18T09:02:27.256Z,9.30
2019-02-18T09:04:57.862Z,9.40
2019-02-18T09:07:28.258Z,9.60
2019-02-18T09:09:58.737Z,9.70
2019-02-18T09:12:29.384Z,9.90
2019-02-18T09:15:00.460Z,10.10
2019-02-18T09:17:31.278Z,10.30
2019-02-18T09:20:01.942Z,10.40
2019-02-18T09:22:49.465Z,10.70
2019-02-18T09:25:23.206Z,10.80
2019-02-18T09:27:53.899Z,10.90
2019-02-18T09:30:27.711Z,11.20
2019-02-18T09:32:58.382Z,11.40
2019-02-18T09:35:28.703Z,11.60
2019-02-18T09:37:59.344Z,11.70
2019-02-18T09:40:29.967Z,11.90
2019-02-18T09:43:00.316Z,12.00
2019-02-18T09:45:30.684Z,12.10
2019-02-18T09:48:04.929Z,12.30
2019-02-18T09:50:35.632Z,12.50
2019-02-18T09:53:06.727Z,12.60
2019-02-18T09:55:37.189Z,12.70
2019-02-18T09:58:07.528Z,12.60
2019-02-18T10:00:38.190Z,12.90
2019-02-18T10:03:08.619Z,13.20
2019-02-18T10:05:38.994Z,13.30
2019-02-18T10:08:09.983Z,13.50
2019-02-18T10:10:40.322Z,13.60
2019-02-18T10:13:10.925Z,13.50
2019-02-18T10:15:41.567Z,13.70
2019-02-18T10:18:19.000Z,14.10
2019-02-18T10:20:49.407Z,14.30
2019-02-18T10:23:20.218Z,14.60
2019-02-18T10:25:50.838Z,14.80
2019-02-18T10:28:21.261Z,15.00
2019-02-18T10:30:52.481Z,15.10
2019-02-18T10:33:22.786Z,15.10
2019-02-18T10:35:53.136Z,15.30
2019-02-18T10:38:23.527Z,15.70
2019-02-18T10:40:53.868Z,15.80
2019-02-18T10:43:32.199Z,16.10
2019-02-18T10:45:56.698Z,16.40
2019-02-18T10:48:28.285Z,16.50
2019-02-18T10:50:59.237Z,16.80
2019-02-18T10:53:29.852Z,16.80
2019-02-18T10:56:00.878Z,16.90
2019-02-18T10:58:31.748Z,17.10
2019-02-18T11:01:02.084Z,17.20
2019-02-18T11:03:32.735Z,17.40
2019-02-18T11:06:03.384Z,17.70
2019-02-18T11:08:33.749Z,17.70
2019-02-18T11:11:04.086Z,17.80
2019-02-18T11:13:34.735Z,17.80
2019-02-18T11:16:05.440Z,17.70
2019-02-18T11:18:36.351Z,17.80
2019-02-18T11:21:07.013Z,17.90
2019-02-18T11:23:38.158Z,17.80
2019-02-18T11:26:08.524Z,17.50
2019-02-18T11:28:39.023Z,17.60
2019-02-18T11:31:09.368Z,17.50
2019-02-18T11:33:39.986Z,17.30
2019-02-18T11:36:10.327Z,17.30
2019-02-18T11:38:40.767Z,17.10
2019-02-18T11:41:11.085Z,17.20
2019-02-18T11:43:41.495Z,17.10
2019-02-18T11:46:12.385Z,16.90
2019-02-18T11:48:42.734Z,16.80
2019-02-18T11:51:13.079Z,16.60
2019-02-18T11:53:43.777Z,16.40
2019-02-18T11:56:14.112Z,16.50
2019-02-18T11:58:45.095Z,16.50
2019-02-18T12:01:15.598Z,16.60
2019-02-18T12:03:46.228Z,16.70
2019-02-18T12:06:16.724Z,16.80
2019-02-18T12:08:52.850Z,16.70
2019-02-18T12:11:23.228Z,16.70
2019-02-18T12:13:54.169Z,16.70
2019-02-18T12:16:24.503Z,16.80
2019-02-18T12:18:54.914Z,16.90
2019-02-18T12:21:25.961Z,16.90
2019-02-18T12:23:57.008Z,16.90
2019-02-18T12:26:27.380Z,16.80
2019-02-18T12:28:57.714Z,16.90
2019-02-18T12:31:28.391Z,17.00
2019-02-18T12:33:58.754Z,17.10
2019-02-18T12:36:29.174Z,17.10
2019-02-18T12:38:59.509Z,17.20
2019-02-18T12:41:31.095Z,17.30
2019-02-18T12:44:01.435Z,17.30
2019-02-18T12:46:32.079Z,17.30
2019-02-18T12:49:02.816Z,17.30
2019-02-18T12:51:42.772Z,17.40
2019-02-18T12:54:13.414Z,17.40
2019-02-18T12:56:44.335Z,17.40
2019-02-18T12:59:14.831Z,17.50
2019-02-18T13:01:45.454Z,17.50
2019-02-18T13:04:16.141Z,17.70
2019-02-18T13:06:46.578Z,17.70
2019-02-18T13:09:17.396Z,17.60
2019-02-18T13:11:58.500Z,17.60
2019-02-18T13:14:20.562Z,17.50
2019-02-18T13:16:50.928Z,17.80
2019-02-18T13:19:24.748Z,17.70
2019-02-18T13:21:55.078Z,17.60
2019-02-18T13:24:25.425Z,17.60
2019-02-18T13:26:55.804Z,17.70
2019-02-18T13:29:26.436Z,17.80
2019-02-18T13:31:56.789Z,17.80
2019-02-18T13:34:27.184Z,17.80
2019-02-18T13:36:58.885Z,17.90
2019-02-18T13:39:29.726Z,17.90
2019-02-18T13:42:07.199Z,17.90
2019-02-18T13:44:32.437Z,17.90
2019-02-18T13:47:05.202Z,17.90
2019-02-18T13:49:35.563Z,18.10
2019-02-18T13:52:06.497Z,18.00
2019-02-18T13:54:37.273Z,17.80
2019-02-18T13:57:10.081Z,17.90
2019-02-18T13:59:39.938Z,17.80
2019-02-18T14:02:10.318Z,17.80
2019-02-18T14:04:41.211Z,17.80
2019-02-18T14:07:11.628Z,17.80
2019-02-18T14:09:42.430Z,18.00
2019-02-18T14:12:16.216Z,17.90
2019-02-18T14:14:45.146Z,18.00
2019-02-18T14:17:16.300Z,17.80
2019-02-18T14:19:46.705Z,17.80
2019-02-18T14:22:17.423Z,17.90
2019-02-18T14:24:48.122Z,17.90
2019-02-18T14:27:19.394Z,17.90
2019-02-18T14:29:52.299Z,18.10
2019-02-18T14:32:22.907Z,18.10
2019-02-18T14:34:53.628Z,18.00
2019-02-18T14:37:23.979Z,18.10
2019-02-18T14:39:54.723Z,18.20
2019-02-18T14:42:26.474Z,18.30
2019-02-18T14:44:56.836Z,18.40
2019-02-18T14:47:27.793Z,18.60
2019-02-18T14:49:58.157Z,18.60
2019-02-18T14:52:28.859Z,18.60
2019-02-18T14:54:59.254Z,18.70
2019-02-18T14:57:29.687Z,18.80
2019-02-18T15:00:00.311Z,18.80
2019-02-18T15:02:30.684Z,18.80
2019-02-18T15:05:01.589Z,18.90
2019-02-18T15:07:31.958Z,19.00
2019-02-18T15:10:02.702Z,18.90
2019-02-18T15:12:33.357Z,18.70
2019-02-18T15:15:04.565Z,18.90
2019-02-18T15:17:35.462Z,18.80
2019-02-18T15:20:06.122Z,18.90
2019-02-18T15:22:36.690Z,18.90
2019-02-18T15:25:07.432Z,18.90
2019-02-18T15:27:37.787Z,18.80
2019-02-18T15:30:10.307Z,18.80
2019-02-18T15:32:40.653Z,18.90
2019-02-18T15:35:11.461Z,18.90
2019-02-18T15:37:44.211Z,18.80
2019-02-18T15:40:15.874Z,18.80
2019-02-18T15:42:46.366Z,18.70
2019-02-18T15:45:17.549Z,18.60
2019-02-18T15:47:47.908Z,18.50
2019-02-18T15:50:18.282Z,18.30
2019-02-18T15:52:48.986Z,18.20
2019-02-18T15:55:21.807Z,18.10
2019-02-18T15:58:17.091Z,18.00
2019-02-18T16:00:47.534Z,17.80
2019-02-18T16:03:19.333Z,17.70
2019-02-18T16:05:50.061Z,17.60
2019-02-18T16:08:20.673Z,17.40
2019-02-18T16:10:52.180Z,17.20
2019-02-18T16:13:22.943Z,17.10
2019-02-18T16:15:53.651Z,17.10
2019-02-18T16:18:23.989Z,17.00
2019-02-18T16:20:54.276Z,16.80
2019-02-18T16:23:24.637Z,16.60
2019-02-18T16:25:55.462Z,16.50
2019-02-18T16:28:25.959Z,16.20
2019-02-18T16:30:58.454Z,16.10
2019-02-18T16:33:29.109Z,15.90
2019-02-18T16:36:00.575Z,15.80
2019-02-18T16:38:30.934Z,15.60
2019-02-18T16:41:01.300Z,15.50
2019-02-18T16:43:33.071Z,15.30
2019-02-18T16:46:08.299Z,15.20
2019-02-18T16:48:40.028Z,15.00
2019-02-18T16:51:14.843Z,14.80
2019-02-18T16:53:45.260Z,14.60
2019-02-18T16:56:15.866Z,14.40
2019-02-18T16:58:46.310Z,14.30
2019-02-18T17:01:17.774Z,14.20
2019-02-18T17:03:50.777Z,14.10
2019-02-18T17:06:25.749Z,14.00
2019-02-18T17:08:58.488Z,14.00
2019-02-18T17:11:29.119Z,13.90
2019-02-18T17:14:02.967Z,13.80
2019-02-18T17:16:34.021Z,13.80
2019-02-18T17:19:04.555Z,13.70
2019-02-18T17:21:35.360Z,13.70
2019-02-18T17:24:05.718Z,13.50
2019-02-18T17:26:36.502Z,13.40
2019-02-18T17:29:06.910Z,13.30
2019-02-18T17:31:37.255Z,13.30
2019-02-18T17:34:08.024Z,13.30
2019-02-18T17:36:38.536Z,13.10
2019-02-18T17:39:09.259Z,12.90
2019-02-18T17:41:42.920Z,12.80
2019-02-18T17:44:20.188Z,12.70
2019-02-18T17:46:47.761Z,12.60
2019-02-18T17:49:22.586Z,12.60
2019-02-18T17:51:53.324Z,12.50
2019-02-18T17:54:24.056Z,12.50
2019-02-18T17:56:54.516Z,12.50
2019-02-18T17:59:26.675Z,12.50
2019-02-18T18:02:01.565Z,12.60
2019-02-18T18:04:32.330Z,12.50
2019-02-18T18:07:03.151Z,12.30
2019-02-18T18:09:33.898Z,12.30
2019-02-18T18:12:30.347Z,12.30
2019-02-18T18:15:22.977Z,12.20
2019-02-18T18:18:02.530Z,11.90
2019-02-18T18:20:32.983Z,11.70
2019-02-18T18:23:04.437Z,11.70
2019-02-18T18:25:35.512Z,11.60
2019-02-18T18:28:06.812Z,11.60
2019-02-18T18:30:37.267Z,11.50
2019-02-18T18:33:07.723Z,11.40
2019-02-18T18:35:38.253Z,11.40
2019-02-18T18:38:08.997Z,11.40
2019-02-18T18:40:39.341Z,11.30
2019-02-18T18:43:09.712Z,11.30
2019-02-18T18:45:40.009Z,11.30
2019-02-18T18:48:11.005Z,11.10
2019-02-18T18:50:42.802Z,11.00
2019-02-18T18:53:13.173Z,11.00
2019-02-18T18:55:43.771Z,11.10
2019-02-18T18:58:14.551Z,11.00
2019-02-18T19:00:45.941Z,11.00
2019-02-18T19:03:16.816Z,11.10
2019-02-18T19:05:47.516Z,11.00
2019-02-18T19:08:17.910Z,11.00
2019-02-18T19:10:48.275Z,11.00
2019-02-18T19:13:18.932Z,10.90
2019-02-18T19:15:49.965Z,10.80
2019-02-18T19:18:20.312Z,10.60
2019-02-18T19:20:50.982Z,10.50
2019-02-18T19:23:21.339Z,10.60
2019-02-18T19:25:51.619Z,10.60
2019-02-18T19:28:25.530Z,10.60
2019-02-18T19:30:55.885Z,10.70
2019-02-18T19:33:26.638Z,10.70
2019-02-18T19:35:57.077Z,10.80
2019-02-18T19:38:29.691Z,11.10
2019-02-18T19:41:04.363Z,11.30
2019-02-18T19:43:36.728Z,11.40
2019-02-18T19:46:07.109Z,11.40
2019-02-18T19:48:37.864Z,11.50
2019-02-18T19:51:08.772Z,11.50
2019-02-18T19:53:40.215Z,11.60
2019-02-18T19:56:10.581Z,11.70
2019-02-18T19:58:43.951Z,11.80
2019-02-18T20:01:14.411Z,11.80
2019-02-18T20:03:47.527Z,11.80
2019-02-18T20:06:18.215Z,11.90
2019-02-18T20:08:52.411Z,11.90
2019-02-18T20:11:23.110Z,11.90
2019-02-18T20:13:58.841Z,11.90
2019-02-18T20:16:26.859Z,11.90
2019-02-18T20:18:59.323Z,11.80
2019-02-18T20:21:30.178Z,11.80
2019-02-18T20:24:01.618Z,11.80
2019-02-18T20:26:32.302Z,11.80
2019-02-18T20:29:02.978Z,11.90
2019-02-18T20:31:39.633Z,11.90
2019-02-18T20:34:11.165Z,12.00
2019-02-18T20:36:44.682Z,12.00
2019-02-18T20:39:15.763Z,12.10
2019-02-18T20:41:46.142Z,12.10
2019-02-18T20:44:16.984Z,12.10
2019-02-18T20:46:48.187Z,12.10
2019-02-18T20:49:19.115Z,12.10
2019-02-18T20:51:50.968Z,12.10
2019-02-18T20:54:26.187Z,12.10
2019-02-18T20:57:00.356Z,12.00
2019-02-18T20:59:30.911Z,12.10
2019-02-18T21:02:01.595Z,12.00
2019-02-18T21:04:32.956Z,12.00
2019-02-18T21:07:04.120Z,12.00
2019-02-18T21:09:36.148Z,12.00
2019-02-18T21:12:06.543Z,12.00
2019-02-18T21:14:37.650Z,11.90
2019-02-18T21:17:08.551Z,12.00
2019-02-18T21:19:39.491Z,11.90
2019-02-18T21:22:09.834Z,11.80
2019-02-18T21:24:40.293Z,11.80
2019-02-18T21:27:10.837Z,11.80
2019-02-18T21:29:43.763Z,11.80
2019-02-18T21:32:14.102Z,11.80
2019-02-18T21:34:44.839Z,11.80
2019-02-18T21:37:16.277Z,11.80
2019-02-18T21:39:46.777Z,11.80
2019-02-18T21:42:18.062Z,11.80
2019-02-18T21:44:48.455Z,11.80
2019-02-18T21:47:18.804Z,11.70
2019-02-18T21:49:49.973Z,11.80
2019-02-18T21:52:20.382Z,11.70
2019-02-18T21:54:51.108Z,11.80
2019-02-18T21:57:21.477Z,11.80
2019-02-18T21:59:52.126Z,11.70
2019-02-18T22:02:23.426Z,11.90
2019-02-18T22:04:59.878Z,11.80
2019-02-18T22:07:30.245Z,11.90
2019-02-18T22:10:01.391Z,11.90
2019-02-18T22:12:31.728Z,11.90
2019-02-18T22:15:04.102Z,11.90
2019-02-18T22:17:34.441Z,11.90
2019-02-18T22:20:05.446Z,11.90
2019-02-18T22:22:36.847Z,12.00
2019-02-18T22:25:08.639Z,12.00
2019-02-18T22:27:39.074Z,12.00
2019-02-18T22:30:11.100Z,12.00
2019-02-18T22:32:41.736Z,11.90
2019-02-18T22:35:12.241Z,12.00
2019-02-18T22:37:42.657Z,11.90
2019-02-18T22:40:13.894Z,11.90
2019-02-18T22:42:44.278Z,12.00
2019-02-18T22:45:15.115Z,11.90
2019-02-18T22:47:45.613Z,11.90
2019-02-18T22:50:16.576Z,11.80
2019-02-18T22:52:47.058Z,11.80
2019-02-18T22:55:19.431Z,11.80
2019-02-18T22:57:50.124Z,11.80
2019-02-18T23:01:11.377Z,11.80
2019-02-18T23:03:42.123Z,11.70
2019-02-18T23:06:14.011Z,11.70
2019-02-18T23:08:45.227Z,11.80
2019-02-18T23:11:15.812Z,11.70
2019-02-18T23:13:46.207Z,11.80
2019-02-18T23:16:18.671Z,11.70
2019-02-18T23:18:50.525Z,11.70
2019-02-18T23:21:21.196Z,11.60
2019-02-18T23:23:51.885Z,11.60
2019-02-18T23:26:22.895Z,11.70
2019-02-18T23:28:53.283Z,11.50
2019-02-18T23:31:23.727Z,11.50
2019-02-18T23:33:54.364Z,11.50
2019-02-18T23:36:25.136Z,11.50
2019-02-18T23:38:55.857Z,11.50
2019-02-18T23:41:26.222Z,11.40
2019-02-18T23:43:57.074Z,11.40
2019-02-18T23:46:27.715Z,11.40
2019-02-18T23:48:58.349Z,11.40
2019-02-18T23:51:28.911Z,11.40
2019-02-18T23:53:59.697Z,11.40
2019-02-18T23:56:30.397Z,11.40
2019-02-18T23:59:00.771Z,11.40
